Time;durP1;ratioP1;P1;durP2;ratioP2;P2;SDS_P1;SDS_P2;PMS_P1;PMS_P2;Temp;Humidity;BMP_temperature;BMP_pressure;BME280_temperature;BME280_humidity;BME280_pressure;Samples;Min_cycle;Max_cycle;Signal;HPM_P1;HPM_P2
2023/07/26 00:00:35;;;;;;;5.90;3.55;;;17.30;99.90;;;;;;10536836;28;20699;-89
2023/07/26 00:05:37;;;;;;;5.13;3.08;;;17.20;99.90;;;;;;10536203;28;20263;-89
2023/07/26 00:10:47;;;;;;;3.60;3.25;;;17.20;99.90;;;;;;10536341;28;20205;-89
2023/07/26 00:15:49;;;;;;;4.93;2.70;;;17.30;99.90;;;;;;10537586;28;20202;-89
2023/07/26 00:20:52;;;;;;;4.47;2.83;;;17.20;99.90;;;;;;10536551;28;20267;-88
2023/07/26 00:25:54;;;;;;;4.82;2.92;;;17.00;99.90;;;;;;10536543;28;20245;-88
2023/07/26 00:30:57;;;;;;;3.42;2.92;;;17.10;99.90;;;;;;10518647;28;20206;-88
2023/07/26 00:35:59;;;;;;;5.53;2.60;;;17.10;99.90;;;;;;10518169;28;20263;-88
2023/07/26 00:41:02;;;;;;;2.63;2.00;;;17.10;99.90;;;;;;10536758;28;20217;-88
2023/07/26 00:46:06;;;;;;;2.90;2.30;;;17.00;99.90;;;;;;10536883;28;20666;-89
2023/07/26 00:51:09;;;;;;;2.80;2.28;;;17.00;99.90;;;;;;10518266;28;20206;-88
2023/07/26 00:56:12;;;;;;;5.35;3.10;;;17.00;99.90;;;;;;10536588;28;20536;-88
2023/07/26 01:01:15;;;;;;;4.53;2.38;;;17.10;99.90;;;;;;10534718;28;20198;-89
2023/07/26 01:06:34;;;;;;;4.88;2.55;;;17.10;99.90;;;;;;10535510;28;20221;-88
2023/07/26 01:12:03;;;;;;;2.97;2.30;;;17.00;99.90;;;;;;10536426;28;20252;-88
2023/07/26 01:17:06;;;;;;;3.25;2.67;;;16.90;99.90;;;;;;10513308;28;20590;-88
2023/07/26 01:22:09;;;;;;;2.50;2.25;;;16.90;99.90;;;;;;10525520;28;20254;-88
2023/07/26 01:27:13;;;;;;;2.92;2.60;;;16.80;99.90;;;;;;10542689;28;20202;-88
2023/07/26 01:32:18;;;;;;;4.03;2.50;;;16.90;99.90;;;;;;10543545;28;20533;-88
2023/07/26 01:37:21;;;;;;;4.68;2.42;;;16.90;99.90;;;;;;10542708;28;20222;-88
2023/07/26 01:42:24;;;;;;;3.67;2.70;;;16.90;99.90;;;;;;10542994;28;20599;-88
2023/07/26 01:47:27;;;;;;;6.50;2.90;;;16.70;99.90;;;;;;10543089;28;20260;-88
2023/07/26 01:52:30;;;;;;;3.00;2.70;;;16.70;99.90;;;;;;10523924;28;20266;-88
2023/07/26 01:57:33;;;;;;;6.43;3.40;;;16.70;99.90;;;;;;10523261;28;20244;-88
2023/07/26 02:02:35;;;;;;;4.30;2.63;;;16.60;99.90;;;;;;10523609;28;20201;-88
2023/07/26 02:07:38;;;;;;;2.47;2.20;;;16.60;99.90;;;;;;10522964;28;20234;-88
2023/07/26 02:12:41;;;;;;;2.90;2.35;;;16.60;99.90;;;;;;10523249;28;20202;-87
2023/07/26 02:17:44;;;;;;;3.25;2.95;;;16.80;99.90;;;;;;10523085;28;20229;-88
2023/07/26 02:22:46;;;;;;;2.95;2.72;;;16.90;99.90;;;;;;10522682;28;20206;-87
2023/07/26 02:27:50;;;;;;;3.30;2.78;;;16.90;99.90;;;;;;10522645;28;20205;-87
2023/07/26 02:32:52;;;;;;;2.78;2.50;;;16.90;99.90;;;;;;10522307;28;20613;-87
2023/07/26 02:37:56;;;;;;;5.85;2.55;;;17.00;99.90;;;;;;10540184;28;20205;-88
2023/07/26 02:42:59;;;;;;;3.33;2.40;;;17.00;99.90;;;;;;10521565;28;20194;-88
2023/07/26 02:48:01;;;;;;;2.40;2.20;;;17.00;99.90;;;;;;10522216;28;20206;-88
2023/07/26 02:53:05;;;;;;;3.53;2.75;;;16.90;99.90;;;;;;10521878;28;20209;-88
2023/07/26 02:58:07;;;;;;;4.10;2.65;;;16.70;99.90;;;;;;10520866;28;20634;-88
2023/07/26 03:03:10;;;;;;;3.88;2.65;;;16.70;99.90;;;;;;10539490;28;20259;-88
2023/07/26 03:08:13;;;;;;;3.63;2.42;;;16.60;99.90;;;;;;10545563;28;20224;-88
2023/07/26 03:13:17;;;;;;;3.28;2.28;;;16.50;99.90;;;;;;10581361;28;20204;-88
2023/07/26 03:18:19;;;;;;;4.15;2.70;;;16.50;99.90;;;;;;10562620;28;20221;-88
2023/07/26 03:23:22;;;;;;;5.00;2.80;;;16.50;99.90;;;;;;10580296;28;20196;-88
2023/07/26 03:28:24;;;;;;;3.17;2.33;;;16.50;99.90;;;;;;10545279;28;20625;-88
2023/07/26 03:33:27;;;;;;;1.92;1.73;;;16.50;99.90;;;;;;10580572;28;20197;-88
2023/07/26 03:38:30;;;;;;;2.75;2.20;;;16.50;99.90;;;;;;10579607;28;20222;-88
2023/07/26 03:43:32;;;;;;;3.63;2.08;;;16.60;99.90;;;;;;10580672;28;20242;-88
2023/07/26 03:48:35;;;;;;;3.20;2.42;;;16.50;99.90;;;;;;10561291;28;20238;-88
2023/07/26 03:53:37;;;;;;;3.13;2.10;;;16.50;99.90;;;;;;10544840;28;20254;-88
2023/07/26 03:58:40;;;;;;;2.97;1.90;;;16.60;99.90;;;;;;10561266;28;20228;-88
2023/07/26 04:03:45;;;;;;;2.92;1.75;;;16.60;99.90;;;;;;10562189;28;20544;-88
2023/07/26 04:08:48;;;;;;;2.00;1.80;;;16.70;99.90;;;;;;10549431;28;20638;-88
2023/07/26 04:13:50;;;;;;;6.80;2.30;;;16.80;99.90;;;;;;10519726;28;20726;-88
2023/07/26 04:18:53;;;;;;;1.88;1.67;;;16.90;99.90;;;;;;10536380;28;20221;-88
2023/07/26 04:23:56;;;;;;;1.92;1.77;;;16.90;99.90;;;;;;10502443;28;20564;-88
2023/07/26 04:28:58;;;;;;;1.90;1.63;;;16.80;99.90;;;;;;10518500;28;20202;-88
2023/07/26 04:34:01;;;;;;;2.75;1.60;;;17.00;99.90;;;;;;10537034;28;20223;-88
2023/07/26 04:39:04;;;;;;;6.75;2.17;;;17.10;99.90;;;;;;10536567;28;20574;-88
2023/07/26 04:44:07;;;;;;;4.28;2.05;;;17.10;99.90;;;;;;10536527;28;20264;-88
2023/07/26 04:49:09;;;;;;;6.10;2.20;;;17.10;99.90;;;;;;10535637;28;20254;-88
2023/07/26 04:54:12;;;;;;;1.90;1.33;;;17.30;99.90;;;;;;10543783;28;20259;-88
2023/07/26 04:59:15;;;;;;;1.55;1.40;;;17.40;99.90;;;;;;10543088;28;20225;-88
2023/07/26 05:04:18;;;;;;;2.95;1.80;;;17.40;99.90;;;;;;10544402;28;20634;-88
2023/07/26 05:09:20;;;;;;;3.80;1.52;;;17.50;99.20;;;;;;10543344;28;20233;-88
2023/07/26 05:14:23;;;;;;;2.20;1.40;;;17.70;99.00;;;;;;10543974;28;20235;-88
2023/07/26 05:19:26;;;;;;;2.53;1.40;;;17.60;99.20;;;;;;10543689;28;20222;-88
2023/07/26 05:24:28;;;;;;;1.73;1.15;;;17.60;99.40;;;;;;10543254;28;20247;-88
2023/07/26 05:29:31;;;;;;;2.13;1.77;;;17.70;99.60;;;;;;10543396;28;20197;-89
2023/07/26 05:34:35;;;;;;;3.83;1.65;;;17.80;99.50;;;;;;10542144;28;20548;-88
2023/07/26 05:39:38;;;;;;;2.35;1.33;;;17.80;99.40;;;;;;10542777;28;20270;-88
2023/07/26 05:44:41;;;;;;;3.65;1.65;;;18.00;98.60;;;;;;10542582;28;20205;-88
2023/07/26 05:49:44;;;;;;;3.88;1.27;;;18.10;96.90;;;;;;10542680;28;20228;-88
2023/07/26 05:54:47;;;;;;;3.60;1.45;;;18.20;97.10;;;;;;10523665;28;20210;-88
2023/07/26 05:59:49;;;;;;;1.58;1.45;;;18.20;97.10;;;;;;10523373;28;20711;-87
2023/07/26 06:04:53;;;;;;;1.60;1.48;;;18.30;95.50;;;;;;10540851;28;20201;-88
2023/07/26 06:09:55;;;;;;;3.92;1.40;;;18.40;95.20;;;;;;10541499;28;20592;-88
2023/07/26 06:14:58;;;;;;;2.00;1.35;;;18.40;94.70;;;;;;10523031;28;20209;-87
2023/07/26 06:20:00;;;;;;;3.22;1.77;;;18.60;95.10;;;;;;10523240;28;20214;-88
2023/07/26 06:25:03;;;;;;;3.17;2.08;;;18.80;94.00;;;;;;10522455;28;20206;-87
2023/07/26 06:30:06;;;;;;;2.17;1.73;;;18.80;94.00;;;;;;10540326;28;20602;-88
2023/07/26 06:35:10;;;;;;;2.88;2.10;;;18.80;94.50;;;;;;10540671;28;20239;-88
2023/07/26 06:40:13;;;;;;;6.15;1.90;;;18.80;92.90;;;;;;10540208;28;20221;-88
2023/07/26 06:45:15;;;;;;;3.15;2.50;;;18.90;92.70;;;;;;10522320;28;20231;-88
2023/07/26 06:50:18;;;;;;;2.80;1.95;;;19.10;92.90;;;;;;10539325;28;20258;-88
2023/07/26 06:55:20;;;;;;;8.57;2.97;;;19.10;92.50;;;;;;10504854;28;20206;-88
2023/07/26 07:00:23;;;;;;;5.68;2.58;;;19.00;93.30;;;;;;10539705;28;20579;-88
2023/07/26 07:05:30;;;;;;;5.20;1.83;;;18.90;93.90;;;;;;10520762;28;20201;-87
2023/07/26 07:10:32;;;;;;;10.27;3.00;;;18.60;94.60;;;;;;10539650;28;20193;-87
2023/07/26 07:15:35;;;;;;;5.45;3.13;;;18.60;95.40;;;;;;10519697;28;20614;-87
2023/07/26 07:20:38;;;;;;;2.83;1.77;;;18.80;93.80;;;;;;10520143;28;20221;-88
2023/07/26 07:25:40;;;;;;;3.88;2.03;;;19.00;92.80;;;;;;10538788;28;20186;-87
2023/07/26 07:30:44;;;;;;;1.92;1.65;;;19.10;92.40;;;;;;10538714;28;20198;-88
2023/07/26 07:35:47;;;;;;;7.90;2.15;;;19.20;92.00;;;;;;10537969;28;20202;-88
2023/07/26 07:40:50;;;;;;;4.95;1.85;;;19.30;91.30;;;;;;10520826;28;20239;-88
2023/07/26 07:45:52;;;;;;;7.82;3.05;;;19.40;90.60;;;;;;10537226;28;20271;-88
2023/07/26 07:50:56;;;;;;;5.93;2.42;;;19.30;91.80;;;;;;10537834;28;20194;-88
2023/07/26 07:55:58;;;;;;;7.25;2.65;;;19.30;91.50;;;;;;10537261;28;20201;-87
2023/07/26 08:01:01;;;;;;;5.60;1.52;;;19.20;92.40;;;;;;10536797;28;20276;-88
2023/07/26 08:06:04;;;;;;;5.57;1.55;;;19.40;90.80;;;;;;10536206;28;20307;-88
2023/07/26 08:11:06;;;;;;;1.65;1.40;;;19.50;87.10;;;;;;10536967;28;20223;-87
2023/07/26 08:16:09;;;;;;;4.30;1.73;;;19.60;84.80;;;;;;10537377;28;20537;-88
2023/07/26 08:21:12;;;;;;;6.15;1.38;;;19.50;83.10;;;;;;10537086;28;20217;-88
2023/07/26 08:26:16;;;;;;;1.80;1.70;;;19.60;84.30;;;;;;10541963;28;20249;-88
2023/07/26 08:31:18;;;;;;;3.40;1.75;;;19.90;79.80;;;;;;10545993;28;20193;-88
2023/07/26 08:36:21;;;;;;;4.13;1.50;;;19.90;79.10;;;;;;10526849;28;20243;-87
2023/07/26 08:41:24;;;;;;;5.65;1.60;;;19.90;78.80;;;;;;10545240;28;20685;-87
2023/07/26 08:46:28;;;;;;;4.40;2.00;;;19.50;81.40;;;;;;10526890;28;20350;-87
2023/07/26 08:51:31;;;;;;;2.33;1.55;;;19.30;84.40;;;;;;10543987;28;20209;-88
2023/07/26 08:56:34;;;;;;;3.55;1.80;;;19.20;83.20;;;;;;10544862;28;20227;-88
2023/07/26 09:01:37;;;;;;;4.65;1.88;;;18.80;87.20;;;;;;10543765;28;20249;-88
2023/07/26 09:07:06;;;;;;;2.67;1.60;;;19.10;87.50;;;;;;10525729;28;20286;-87
2023/07/26 09:12:09;;;;;;;1.98;1.88;;;19.30;85.60;;;;;;10526373;28;20194;-87
2023/07/26 09:17:11;;;;;;;3.25;1.77;;;19.40;84.20;;;;;;10543100;28;20247;-87
2023/07/26 09:22:14;;;;;;;2.55;1.48;;;19.20;84.80;;;;;;10542846;28;20263;-88
2023/07/26 09:27:19;;;;;;;3.25;1.85;;;19.30;83.20;;;;;;10525125;28;20201;-87
2023/07/26 09:32:29;;;;;;;3.40;1.80;;;19.20;84.70;;;;;;10525326;28;20209;-87
2023/07/26 09:37:33;;;;;;;2.90;1.40;;;19.20;83.40;;;;;;10542262;28;20231;-88
2023/07/26 09:42:44;;;;;;;5.18;2.10;;;19.30;83.70;;;;;;10541679;28;20637;-87
2023/07/26 09:47:48;;;;;;;6.47;2.15;;;19.00;84.30;;;;;;10541970;28;20198;-88
2023/07/26 09:53:05;;;;;;;4.97;2.20;;;19.00;81.90;;;;;;10541730;28;20201;-87
2023/07/26 09:58:08;;;;;;;2.95;1.80;;;19.20;83.00;;;;;;10542362;28;20664;-87
2023/07/26 10:03:15;;;;;;;3.85;2.70;;;19.30;81.40;;;;;;10523767;28;20218;-88
2023/07/26 10:08:19;;;;;;;2.20;1.67;;;19.40;80.10;;;;;;10541445;28;20238;-88
2023/07/26 10:13:24;;;;;;;7.50;2.17;;;19.70;78.10;;;;;;10540556;28;20250;-87
2023/07/26 10:18:28;;;;;;;2.33;1.55;;;19.90;75.40;;;;;;10523045;28;20210;-87
2023/07/26 10:23:31;;;;;;;5.97;1.67;;;19.90;74.80;;;;;;10522318;28;20202;-88
2023/07/26 10:28:34;;;;;;;4.80;1.67;;;20.00;72.20;;;;;;10540192;28;20193;-87
2023/07/26 10:33:44;;;;;;;3.45;1.60;;;20.00;73.40;;;;;;10540071;28;20614;-87
2023/07/26 10:38:52;;;;;;;4.70;1.88;;;20.10;72.90;;;;;;10539104;28;20258;-87
2023/07/26 10:44:02;;;;;;;1.73;1.63;;;20.00;72.40;;;;;;10521791;28;20741;-88
2023/07/26 10:49:26;;;;;;;2.13;1.50;;;20.10;72.10;;;;;;10540478;28;20194;-87
2023/07/26 10:54:42;;;;;;;3.70;1.48;;;20.20;70.10;;;;;;10540228;28;20224;-87
2023/07/26 11:00:04;;;;;;;1.80;1.60;;;20.50;67.60;;;;;;10521736;28;20220;-88
2023/07/26 11:05:16;;;;;;;1.77;1.35;;;20.90;67.30;;;;;;10521369;28;20243;-88
2023/07/26 11:10:20;;;;;;;2.30;1.52;;;21.30;62.70;;;;;;10538968;28;20578;-87
2023/07/26 11:15:30;;;;;;;6.28;2.00;;;21.40;59.70;;;;;;10539155;28;20209;-87
2023/07/26 11:20:54;;;;;;;3.88;1.77;;;21.50;60.60;;;;;;10539200;28;20205;-87
2023/07/26 11:26:01;;;;;;;1.50;1.40;;;21.80;57.10;;;;;;10539384;28;20190;-88
2023/07/26 11:31:04;;;;;;;4.40;2.00;;;22.20;55.70;;;;;;10521023;28;20201;-88
2023/07/26 11:36:10;;;;;;;1.75;1.40;;;22.20;51.20;;;;;;10537947;28;20206;-88
2023/07/26 11:41:19;;;;;;;2.75;1.60;;;22.10;48.80;;;;;;10520056;28;20221;-88
2023/07/26 11:46:28;;;;;;;1.83;1.50;;;22.10;46.70;;;;;;10520779;28;20613;-88
2023/07/26 11:51:32;;;;;;;1.80;1.13;;;22.20;46.70;;;;;;10538255;28;20251;-88
2023/07/26 11:56:37;;;;;;;3.40;1.45;;;22.10;40.30;;;;;;10537885;28;20560;-88
2023/07/26 12:01:41;;;;;;;2.28;1.10;;;22.20;40.90;;;;;;10536700;28;20221;-88
2023/07/26 12:06:45;;;;;;;2.72;1.88;;;22.20;40.00;;;;;;10519164;28;20226;-88
2023/07/26 12:11:50;;;;;;;6.05;1.73;;;22.50;42.70;;;;;;10519636;28;20205;-88
2023/07/26 12:16:54;;;;;;;1.65;0.82;;;22.50;36.10;;;;;;10537717;28;20272;-88
2023/07/26 12:21:59;;;;;;;2.55;1.10;;;22.20;35.40;;;;;;10536982;28;20218;-87
2023/07/26 12:27:04;;;;;;;1.83;1.00;;;22.30;40.10;;;;;;10537559;28;20186;-88
2023/07/26 12:32:06;;;;;;;1.70;1.60;;;22.40;35.50;;;;;;10536583;28;20623;-87
2023/07/26 12:37:09;;;;;;;2.13;1.88;;;22.50;42.20;;;;;;10519233;28;20346;-87
2023/07/26 12:42:12;;;;;;;2.15;1.40;;;22.60;38.30;;;;;;10535954;28;20222;-88
2023/07/26 12:47:14;;;;;;;2.10;1.65;;;22.40;36.30;;;;;;10518951;28;20235;-87
2023/07/26 12:52:32;;;;;;;1.83;1.38;;;22.40;39.30;;;;;;10536309;28;20205;-88
2023/07/26 12:57:34;;;;;;;4.00;1.50;;;22.40;37.80;;;;;;10502344;28;20236;-88
2023/07/26 13:02:37;;;;;;;6.63;1.85;;;22.50;36.50;;;;;;10518889;28;20267;-87
2023/07/26 13:07:40;;;;;;;1.67;1.30;;;22.50;38.60;;;;;;10536629;28;20267;-88
2023/07/26 13:12:42;;;;;;;3.92;1.73;;;22.30;36.90;;;;;;10540324;28;20639;-88
2023/07/26 13:17:46;;;;;;;3.67;1.35;;;22.10;35.40;;;;;;10544425;28;20251;-88
2023/07/26 13:22:48;;;;;;;3.60;1.20;;;22.00;34.70;;;;;;10525387;28;20225;-87
2023/07/26 13:27:51;;;;;;;1.75;1.20;;;22.00;28.50;;;;;;10525408;28;20240;-88
2023/07/26 13:32:54;;;;;;;8.32;1.33;;;21.70;35.00;;;;;;10525264;28;20205;-88
2023/07/26 13:37:57;;;;;;;1.83;1.10;;;21.80;30.10;;;;;;10543266;28;20202;-88
2023/07/26 13:43:00;;;;;;;3.20;1.35;;;21.60;30.80;;;;;;10543129;28;20266;-88
2023/07/26 13:48:03;;;;;;;1.80;1.60;;;21.60;32.40;;;;;;10543105;28;20243;-88
2023/07/26 13:53:05;;;;;;;1.50;1.40;;;21.80;38.40;;;;;;10542118;28;20627;-87
2023/07/26 13:58:08;;;;;;;8.02;2.10;;;22.00;36.10;;;;;;10523712;28;20202;-87
2023/07/26 14:03:10;;;;;;;2.15;1.92;;;22.00;34.40;;;;;;10523663;28;20218;-87
2023/07/26 14:08:13;;;;;;;2.63;1.80;;;22.10;35.50;;;;;;10541470;28;20278;-88
2023/07/26 14:13:16;;;;;;;2.13;1.52;;;22.20;33.00;;;;;;10523651;28;20209;-88
2023/07/26 14:18:18;;;;;;;1.08;1.00;;;22.50;33.50;;;;;;10542178;28;20220;-89
2023/07/26 14:23:21;;;;;;;3.03;1.20;;;22.40;34.10;;;;;;10540327;28;20278;-88
2023/07/26 14:28:24;;;;;;;2.47;1.23;;;22.30;30.70;;;;;;10523150;28;20278;-88
2023/07/26 14:33:26;;;;;;;3.95;1.55;;;22.00;30.90;;;;;;10540868;28;20240;-87
2023/07/26 14:38:29;;;;;;;1.70;1.30;;;21.70;31.30;;;;;;10540958;28;20206;-88
2023/07/26 14:43:31;;;;;;;3.88;1.20;;;21.50;30.40;;;;;;10540632;28;20259;-88
2023/07/26 14:48:34;;;;;;;3.45;1.42;;;21.40;33.80;;;;;;10506064;28;20251;-88
2023/07/26 14:53:37;;;;;;;2.33;1.30;;;21.50;33.50;;;;;;10542163;28;20274;-88
2023/07/26 14:58:39;;;;;;;1.80;1.70;;;21.70;35.10;;;;;;10541902;28;20251;-89
2023/07/26 15:03:42;;;;;;;1.67;1.30;;;22.20;37.50;;;;;;10539337;28;20274;-88
2023/07/26 15:08:45;;;;;;;3.47;1.80;;;22.50;33.00;;;;;;10538672;28;20230;-89
2023/07/26 15:13:47;;;;;;;3.28;1.00;;;22.80;28.20;;;;;;10521880;28;20194;-89
2023/07/26 15:18:50;;;;;;;1.95;1.42;;;22.90;24.90;;;;;;10538486;28;20206;-88
2023/07/26 15:23:53;;;;;;;2.17;1.70;;;22.70;24.60;;;;;;10538842;28;20243;-88
2023/07/26 15:28:55;;;;;;;1.40;1.25;;;22.60;25.20;;;;;;10538790;28;20193;-89
2023/07/26 15:33:58;;;;;;;1.50;1.35;;;22.60;22.00;;;;;;10537814;28;20201;-89
2023/07/26 15:39:01;;;;;;;2.03;1.38;;;22.50;25.90;;;;;;10537710;28;20206;-88
2023/07/26 15:44:03;;;;;;;1.75;1.52;;;22.30;24.70;;;;;;10538157;28;20279;-88
2023/07/26 15:49:09;;;;;;;2.33;1.70;;;22.30;26.30;;;;;;10537572;28;20209;-89
2023/07/26 15:54:11;;;;;;;4.80;1.33;;;22.30;27.30;;;;;;10537944;28;20198;-88
2023/07/26 15:59:14;;;;;;;1.90;1.70;;;22.40;23.30;;;;;;10537042;28;20197;-88
2023/07/26 16:04:16;;;;;;;2.88;1.85;;;22.60;29.20;;;;;;10519063;28;20255;-88
2023/07/26 16:09:22;;;;;;;1.90;1.17;;;23.00;26.90;;;;;;10519015;28;20225;-88
2023/07/26 16:14:27;;;;;;;1.25;1.15;;;23.00;26.60;;;;;;10537805;28;20224;-88
2023/07/26 16:19:33;;;;;;;1.85;1.58;;;23.10;25.30;;;;;;10537475;28;20246;-88
2023/07/26 16:24:38;;;;;;;2.70;1.35;;;23.10;24.80;;;;;;10518900;28;20675;-88
2023/07/26 16:29:41;;;;;;;1.38;1.27;;;22.70;23.60;;;;;;10536985;28;20223;-88
2023/07/26 16:34:43;;;;;;;4.35;2.10;;;22.80;25.00;;;;;;10536580;28;20206;-89
2023/07/26 16:39:46;;;;;;;2.15;1.88;;;22.70;23.30;;;;;;10502426;28;20209;-88
2023/07/26 16:44:49;;;;;;;2.10;1.63;;;22.70;24.20;;;;;;10537769;28;20587;-88
2023/07/26 16:49:52;;;;;;;1.65;1.33;;;22.40;23.80;;;;;;10526956;28;20193;-89
2023/07/26 16:54:55;;;;;;;2.13;1.85;;;22.20;22.20;;;;;;10544554;28;20205;-88
2023/07/26 16:59:57;;;;;;;2.10;1.83;;;21.70;24.20;;;;;;10545090;28;20202;-88
2023/07/26 17:05:00;;;;;;;2.38;1.48;;;21.30;26.50;;;;;;10543694;28;20609;-89
2023/07/26 17:10:03;;;;;;;2.80;1.92;;;21.10;25.50;;;;;;10526008;28;20278;-89
2023/07/26 17:15:06;;;;;;;2.40;1.70;;;20.90;23.50;;;;;;10544530;28;20198;-89
2023/07/26 17:20:09;;;;;;;2.03;1.60;;;20.70;25.70;;;;;;10525363;28;20197;-88
2023/07/26 17:25:12;;;;;;;4.15;2.22;;;21.00;27.80;;;;;;10544004;28;20251;-89
2023/07/26 17:30:14;;;;;;;1.88;1.60;;;21.10;29.00;;;;;;10543721;28;20223;-88
2023/07/26 17:35:17;;;;;;;2.83;1.73;;;21.00;33.60;;;;;;10524807;28;20197;-88
2023/07/26 17:40:21;;;;;;;2.08;1.85;;;20.90;32.80;;;;;;10524525;28;20330;-88
2023/07/26 17:45:23;;;;;;;2.13;1.50;;;20.70;30.20;;;;;;10543175;28;20194;-88
2023/07/26 17:50:26;;;;;;;1.98;1.40;;;20.60;29.10;;;;;;10543326;28;20189;-88
2023/07/26 17:55:29;;;;;;;2.45;1.90;;;20.20;33.40;;;;;;10543683;28;20190;-88
2023/07/26 18:00:32;;;;;;;2.53;1.90;;;20.00;34.90;;;;;;10541365;28;20190;-88
2023/07/26 18:05:35;;;;;;;5.07;1.67;;;19.90;35.80;;;;;;10541541;28;20263;-88
2023/07/26 18:10:38;;;;;;;1.92;1.48;;;19.60;35.40;;;;;;10523507;28;20206;-88
2023/07/26 18:15:41;;;;;;;3.42;1.40;;;19.50;38.20;;;;;;10542226;28;20198;-88
2023/07/26 18:20:43;;;;;;;3.47;1.60;;;19.60;39.30;;;;;;10541928;28;20243;-88
2023/07/26 18:25:46;;;;;;;6.97;2.20;;;19.80;40.80;;;;;;10541392;28;20198;-88
2023/07/26 18:30:48;;;;;;;5.32;1.80;;;19.70;40.30;;;;;;10540547;28;20205;-88
2023/07/26 18:35:53;;;;;;;2.17;1.83;;;19.40;40.40;;;;;;10522636;28;20210;-88
2023/07/26 18:40:58;;;;;;;6.28;1.85;;;19.40;46.50;;;;;;10539700;28;20225;-88
2023/07/26 18:46:00;;;;;;;9.65;2.95;;;19.50;42.50;;;;;;10522749;28;20189;-88
2023/07/26 18:51:04;;;;;;;7.18;2.53;;;19.00;41.20;;;;;;10540581;28;20189;-88
2023/07/26 18:56:07;;;;;;;5.95;2.38;;;18.80;43.40;;;;;;10540500;28;20193;-88
2023/07/26 19:01:10;;;;;;;3.00;1.95;;;18.60;45.90;;;;;;10539199;28;20255;-88
2023/07/26 19:06:12;;;;;;;3.95;1.77;;;18.40;43.90;;;;;;10521710;28;20275;-88
2023/07/26 19:11:15;;;;;;;1.30;1.20;;;18.20;44.40;;;;;;10539866;28;20198;-88
2023/07/26 19:16:17;;;;;;;1.83;1.58;;;18.00;42.60;;;;;;10538600;28;20618;-88
2023/07/26 19:21:20;;;;;;;5.80;1.55;;;17.90;46.80;;;;;;10538923;28;20263;-88
2023/07/26 19:26:23;;;;;;;1.63;1.52;;;17.70;46.00;;;;;;10538992;28;20189;-88
2023/07/26 19:31:26;;;;;;;4.13;1.75;;;17.60;49.60;;;;;;10537872;28;20564;-88
2023/07/26 19:36:28;;;;;;;2.90;1.55;;;17.60;49.30;;;;;;10519500;28;20209;-88
2023/07/26 19:41:31;;;;;;;1.77;1.52;;;17.50;48.10;;;;;;10519956;28;20225;-89
2023/07/26 19:46:34;;;;;;;3.83;1.90;;;17.50;51.90;;;;;;10538396;28;20194;-88
2023/07/26 19:51:37;;;;;;;1.80;1.42;;;17.60;52.00;;;;;;10536670;28;20263;-88
2023/07/26 19:56:40;;;;;;;1.73;1.38;;;17.40;52.10;;;;;;10538121;28;20194;-88
2023/07/26 20:01:42;;;;;;;2.28;1.60;;;17.20;56.60;;;;;;10519289;28;20221;-88
2023/07/26 20:06:51;;;;;;;4.35;1.95;;;17.20;60.00;;;;;;10537527;28;20221;-89
2023/07/26 20:11:53;;;;;;;2.35;1.40;;;17.20;62.30;;;;;;10502576;28;20263;-89
2023/07/26 20:16:56;;;;;;;2.00;1.65;;;17.10;64.70;;;;;;10537836;28;20193;-88
2023/07/26 20:21:58;;;;;;;2.15;1.55;;;17.20;66.80;;;;;;10518986;28;20584;-88
2023/07/26 20:27:02;;;;;;;2.45;1.90;;;17.00;66.60;;;;;;10536842;28;20565;-88
2023/07/26 20:32:05;;;;;;;2.35;1.50;;;16.90;69.90;;;;;;10537103;28;20251;-88
2023/07/26 20:37:07;;;;;;;2.40;1.48;;;16.80;70.40;;;;;;10536104;28;20213;-88
2023/07/26 20:42:10;;;;;;;3.35;2.45;;;16.70;71.80;;;;;;10536326;28;20221;-88
2023/07/26 20:47:12;;;;;;;2.50;2.03;;;16.60;75.60;;;;;;10536045;28;20568;-88
2023/07/26 20:52:16;;;;;;;2.58;1.52;;;16.50;78.20;;;;;;10536085;28;20213;-88
2023/07/26 20:57:18;;;;;;;3.35;1.83;;;16.50;77.70;;;;;;10536899;28;20232;-88
2023/07/26 21:02:22;;;;;;;2.13;1.60;;;16.30;81.50;;;;;;10536108;28;20251;-88
2023/07/26 21:07:25;;;;;;;2.88;1.92;;;16.30;81.10;;;;;;10501716;28;20233;-88
2023/07/26 21:12:27;;;;;;;1.83;1.30;;;16.20;82.20;;;;;;10517812;28;20279;-88
2023/07/26 21:17:30;;;;;;;3.53;2.08;;;16.30;83.60;;;;;;10518786;28;20564;-88
2023/07/26 21:22:33;;;;;;;2.45;1.52;;;16.10;83.70;;;;;;10534934;28;20641;-88
2023/07/26 21:27:36;;;;;;;2.65;1.80;;;16.10;85.60;;;;;;10535357;28;20247;-88
2023/07/26 21:32:39;;;;;;;2.13;1.55;;;16.00;86.10;;;;;;10519452;28;20619;-88
2023/07/26 21:37:41;;;;;;;4.00;1.55;;;15.80;85.60;;;;;;10525000;28;20671;-88
2023/07/26 21:42:44;;;;;;;2.72;1.70;;;15.50;88.10;;;;;;10543217;28;20217;-88
2023/07/26 21:47:47;;;;;;;1.83;1.65;;;15.20;90.10;;;;;;10524811;28;20263;-88
2023/07/26 21:52:50;;;;;;;2.67;1.88;;;15.20;91.60;;;;;;10542214;28;20205;-88
2023/07/26 21:57:52;;;;;;;1.40;1.20;;;15.10;92.20;;;;;;10541433;28;20206;-88
2023/07/26 22:02:55;;;;;;;2.78;1.52;;;15.00;92.70;;;;;;10523512;28;20249;-88
2023/07/26 22:07:58;;;;;;;4.07;1.92;;;14.80;92.80;;;;;;10540925;28;20259;-88
2023/07/26 22:13:00;;;;;;;4.03;2.78;;;14.80;93.40;;;;;;10542022;28;20537;-88
2023/07/26 22:18:03;;;;;;;2.42;1.95;;;14.30;94.60;;;;;;10540614;28;20205;-88
2023/07/26 22:23:06;;;;;;;2.40;1.65;;;14.30;95.70;;;;;;10541433;28;20213;-88
2023/07/26 22:28:08;;;;;;;3.00;2.17;;;14.20;96.30;;;;;;10541411;28;20299;-88
2023/07/26 22:33:11;;;;;;;3.10;1.63;;;14.10;97.30;;;;;;10541180;28;20197;-88
2023/07/26 22:38:13;;;;;;;2.80;2.10;;;13.80;98.10;;;;;;10540311;28;20209;-88
2023/07/26 22:43:16;;;;;;;2.78;2.30;;;13.40;99.10;;;;;;10521506;28;20225;-88
2023/07/26 22:48:20;;;;;;;3.17;2.05;;;13.20;99.90;;;;;;10521876;28;20198;-88
2023/07/26 22:53:22;;;;;;;3.58;1.80;;;13.00;99.90;;;;;;10540449;28;20206;-88
2023/07/26 22:58:26;;;;;;;2.65;1.90;;;12.80;99.90;;;;;;10521507;28;20209;-88
2023/07/26 23:03:30;;;;;;;7.10;2.42;;;12.60;99.90;;;;;;10539502;28;20225;-88
2023/07/26 23:08:33;;;;;;;4.63;2.72;;;;;;;;;;10548715;28;20241;-88
2023/07/26 23:13:36;;;;;;;3.55;2.00;;;12.30;99.90;;;;;;10581466;28;20609;-88
2023/07/26 23:18:38;;;;;;;4.78;2.10;;;12.30;99.90;;;;;;10581525;28;20193;-88
2023/07/26 23:23:41;;;;;;;3.35;2.30;;;12.10;99.90;;;;;;10562425;28;20290;-88
2023/07/26 23:28:44;;;;;;;2.65;2.00;;;12.00;99.90;;;;;;10580460;28;20197;-88
2023/07/26 23:33:47;;;;;;;6.53;2.22;;;12.10;99.90;;;;;;10562287;28;20209;-88
2023/07/26 23:38:49;;;;;;;2.75;2.03;;;12.00;99.90;;;;;;10580623;28;20284;-88
2023/07/26 23:43:52;;;;;;;8.43;2.28;;;11.80;99.90;;;;;;10580590;28;20767;-88
2023/07/26 23:48:54;;;;;;;4.05;1.88;;;12.00;99.90;;;;;;10580393;28;20200;-88
2023/07/26 23:53:57;;;;;;;3.53;1.95;;;12.00;99.90;;;;;;10560992;28;20243;-88
2023/07/26 23:58:59;;;;;;;5.10;2.40;;;12.00;99.90;;;;;;10560809;28;20262;-88
